Time;durP1;ratioP1;P1;durP2;ratioP2;P2;SDS_P1;SDS_P2;PMS_P1;PMS_P2;Temp;Humidity;BMP_temperature;BMP_pressure;BME280_temperature;BME280_humidity;BME280_pressure;Samples;Min_cycle;Max_cycle;Signal;HPM_P1;HPM_P2
2023/06/13 00:00:37;;;;;;;;;;;;;;;22.74;49.61;101000.34;7314148;19;20029;-57
2023/06/13 00:03:03;;;;;;;;;;;;;;;22.72;49.33;100996.97;7315683;19;20207;-58
2023/06/13 00:05:28;;;;;;;;;;;;;;;22.70;49.32;100996.19;7315325;19;19919;-57
2023/06/13 00:07:53;;;;;;;;;;;;;;;22.67;49.57;100994.59;7315443;19;19998;-57
2023/06/13 00:10:19;;;;;;;;;;;;;;;22.66;49.68;100992.91;7314592;19;19919;-57
2023/06/13 00:12:49;;;;;;;;;;;;;;;22.65;49.83;101000.97;7320469;19;19926;-57
2023/06/13 00:15:14;;;;;;;;;;;;;;;22.40;49.78;100951.22;7322279;19;19931;-57
2023/06/13 00:17:40;;;;;;;;;;;;;;;22.61;49.65;101002.13;7321105;19;19987;-57
2023/06/13 00:20:06;;;;;;;;;;;;;;;22.59;49.93;100996.09;7317545;19;19952;-57
2023/06/13 00:22:31;;;;;;;;;;;;;;;22.57;50.12;100992.69;7324079;19;19995;-57
2023/06/13 00:24:57;;;;;;;;;;;;;;;22.56;50.03;100991.84;7319199;19;19932;-57
2023/06/13 00:27:23;;;;;;;;;;;;;;;22.53;49.70;100982.22;7316912;19;19927;-57
2023/06/13 00:29:48;;;;;;;;;;;;;;;22.52;49.79;100985.00;7320717;19;21015;-57
2023/06/13 00:32:13;;;;;;;;;;;;;;;22.50;49.83;100981.59;7320257;19;19928;-57
2023/06/13 00:34:38;;;;;;;;;;;;;;;22.47;49.56;100980.00;7321033;19;19925;-57
2023/06/13 00:37:04;;;;;;;;;;;;;;;22.45;49.78;100981.88;7320417;19;20428;-57
2023/06/13 00:39:29;;;;;;;;;;;;;;;22.43;49.40;100975.00;7319910;19;19949;-57
2023/06/13 00:41:55;;;;;;;;;;;;;;;22.40;49.34;100959.22;7320324;19;20848;-57
2023/06/13 00:44:20;;;;;;;;;;;;;;;22.37;49.84;100954.97;7321941;19;20357;-57
2023/06/13 00:46:45;;;;;;;;;;;;;;;22.35;49.52;100954.19;7316728;19;20988;-58
2023/06/13 00:49:13;;;;;;;;;;;;;;;22.32;49.50;100957.09;7322534;19;19922;-57
2023/06/13 00:51:41;;;;;;;;;;;;;;;22.30;49.99;100953.66;7313177;19;19923;-57
2023/06/13 00:54:07;;;;;;;;;;;;;;;22.27;50.09;100953.88;7320961;19;19998;-57
2023/06/13 00:56:33;;;;;;;;;;;;;;;22.25;50.02;100950.47;7319807;19;19911;-57
2023/06/13 00:58:58;;;;;;;;;;;;;;;;;;7317335;19;20443;-57
2023/06/13 01:01:24;;;;;;;;;;;;;;;22.20;49.79;100947.25;7317639;19;19918;-58
2023/06/13 01:03:50;;;;;;;;;;;;;;;22.18;49.95;100935.88;7318880;19;19930;-57
2023/06/13 01:06:16;;;;;;;;;;;;;;;22.16;50.18;100943.97;7320738;19;19922;-57
2023/06/13 01:08:42;;;;;;;;;;;;;;;22.13;49.53;100941.50;7317113;19;20431;-57
2023/06/13 01:11:28;;;;;;;;;;;;;;;22.12;50.15;100933.66;7322336;19;19919;-57
2023/06/13 01:14:05;;;;;;;;;;;;;;;21.80;50.10;100891.41;7321919;19;19919;-57
2023/06/13 01:16:38;;;;;;;;;;;;;;;22.08;50.42;100942.75;7319393;19;19922;-58
2023/06/13 01:19:08;;;;;;;;;;;;;;;22.05;50.05;100937.63;7319999;19;19911;-57
2023/06/13 01:21:35;;;;;;;;;;;;;;;22.02;50.06;100936.88;7320319;19;19906;-57
2023/06/13 01:24:12;;;;;;;;;;;;;;;22.00;50.15;100935.28;7316085;19;19945;-58
2023/06/13 01:26:45;;;;;;;;;;;;;;;21.98;50.33;100938.03;7313349;19;19919;-57
2023/06/13 01:29:11;;;;;;;;;;;;;;;21.96;50.31;100947.94;7313539;19;19951;-57
2023/06/13 01:31:37;;;;;;;;;;;;;;;21.94;50.49;100957.78;7321487;19;20526;-57
2023/06/13 01:34:02;;;;;;;;;;;;;;;21.92;50.59;100942.91;7316645;19;19990;-57
2023/06/13 01:36:28;;;;;;;;;;;;;;;21.89;50.02;100938.63;7322220;19;20201;-57
2023/06/13 01:38:53;;;;;;;;;;;;;;;21.88;50.23;100936.09;7315098;19;19911;-57
2023/06/13 01:41:18;;;;;;;;;;;;;;;21.86;50.84;100941.53;7315616;19;19911;-57
2023/06/13 01:43:44;;;;;;;;;;;;;;;21.83;50.39;100935.53;7320018;19;19915;-58
2023/06/13 01:46:15;;;;;;;;;;;;;;;21.81;50.40;100940.97;7323053;19;19918;-57
2023/06/13 01:48:50;;;;;;;;;;;;;;;21.79;50.53;100942.84;7316823;19;20289;-57
2023/06/13 01:51:21;;;;;;;;;;;;;;;21.77;50.90;100944.78;7318867;19;19919;-58
2023/06/13 01:53:54;;;;;;;;;;;;;;;21.75;50.70;100944.03;7319814;19;20010;-57
2023/06/13 01:56:22;;;;;;;;;;;;;;;21.73;50.78;100927.31;7315968;19;20474;-58
2023/06/13 01:58:59;;;;;;;;;;;;;;;21.72;50.51;100936.25;7314259;19;19932;-57
2023/06/13 02:01:29;;;;;;;;;;;;;;;21.70;50.67;100932.84;7319147;19;19915;-57
2023/06/13 02:03:54;;;;;;;;;;;;;;;21.69;51.15;100928.47;7318943;19;20271;-58
2023/06/13 02:06:20;;;;;;;;;;;;;;;21.66;51.17;100931.34;7319808;19;19940;-57
2023/06/13 02:08:46;;;;;;;;;;;;;;;21.65;51.19;100940.28;7319561;19;19961;-57
2023/06/13 02:11:11;;;;;;;;;;;;;;;21.62;51.04;100943.13;7312347;19;19995;-57
2023/06/13 02:13:37;;;;;;;;;;;;;;;21.61;51.32;100946.75;7313895;19;19919;-58
2023/06/13 02:16:02;;;;;;;;;;;;;;;21.59;51.22;100943.31;7317773;19;20403;-57
2023/06/13 02:18:28;;;;;;;;;;;;;;;21.56;51.11;100938.22;7317276;19;19915;-57
2023/06/13 02:20:53;;;;;;;;;;;;;;;21.55;50.96;100940.00;7317717;19;19936;-57
2023/06/13 02:23:19;;;;;;;;;;;;;;;21.22;51.35;100900.47;7320994;19;19918;-58
2023/06/13 02:25:45;;;;;;;;;;;;;;;21.53;51.39;100962.31;7320265;19;19911;-57
2023/06/13 02:28:10;;;;;;;;;;;;;;;21.52;51.51;100964.13;7314862;19;19932;-57
2023/06/13 02:30:36;;;;;;;;;;;;;;;21.52;51.46;100961.47;7317098;19;19929;-57
2023/06/13 02:33:01;;;;;;;;;;;;;;;21.50;51.71;100960.72;7319409;19;19922;-58
2023/06/13 02:35:26;;;;;;;;;;;;;;;21.50;51.61;100964.22;7319109;19;19922;-58
2023/06/13 02:37:55;;;;;;;;;;;;;;;21.49;52.09;100970.50;7314033;19;19938;-57
2023/06/13 02:40:20;;;;;;;;;;;;;;;21.49;51.90;100972.28;7319579;19;19914;-57
2023/06/13 02:42:47;;;;;;;;;;;;;;;21.47;51.95;100969.72;7314349;19;19934;-58
2023/06/13 02:45:12;;;;;;;;;;;;;;;21.47;51.79;100966.22;7319311;19;19918;-57
2023/06/13 02:47:37;;;;;;;;;;;;;;;21.47;52.12;100966.22;7321705;19;19936;-57
2023/06/13 02:50:03;;;;;;;;;;;;;;;21.46;51.89;100973.34;7319696;19;19922;-57
2023/06/13 02:52:28;;;;;;;;;;;;;;;21.44;51.56;100975.25;7316063;19;20522;-57
2023/06/13 02:54:53;;;;;;;;;;;;;;;21.44;51.71;100980.56;7316070;19;20621;-57
2023/06/13 02:57:18;;;;;;;;;;;;;;;21.42;52.15;100982.44;7321730;19;19944;-57
2023/06/13 02:59:44;;;;;;;;;;;;;;;21.40;52.11;100984.38;7320704;19;19923;-57
2023/06/13 03:02:09;;;;;;;;;;;;;;;21.41;51.97;100993.19;7310437;19;19943;-57
2023/06/13 03:04:35;;;;;;;;;;;;;;;21.40;52.31;100999.44;7296590;19;19923;-57
2023/06/13 03:07:01;;;;;;;;;;;;;;;21.07;52.31;100941.28;7353401;19;19937;-57
2023/06/13 03:09:26;;;;;;;;;;;;;;;21.39;52.39;100993.28;7350989;19;19923;-57
2023/06/13 03:11:51;;;;;;;;;;;;;;;21.37;52.10;100997.81;7348018;19;19922;-57
2023/06/13 03:14:16;;;;;;;;;;;;;;;21.39;52.39;100997.72;7350387;19;19954;-57
2023/06/13 03:16:42;;;;;;;;;;;;;;;21.36;51.96;100988.16;7349072;19;20474;-57
2023/06/13 03:19:07;;;;;;;;;;;;;;;21.36;52.32;100982.84;7326170;19;19919;-57
2023/06/13 03:21:33;;;;;;;;;;;;;;;21.37;52.55;100992.50;7343227;19;19923;-57
2023/06/13 03:23:58;;;;;;;;;;;;;;;21.35;52.35;100986.47;7338907;19;20443;-58
2023/06/13 03:26:24;;;;;;;;;;;;;;;21.35;52.04;100983.81;7345253;19;19963;-57
2023/06/13 03:28:49;;;;;;;;;;;;;;;21.34;52.19;100987.41;7348019;19;20599;-57
2023/06/13 03:31:14;;;;;;;;;;;;;;;21.34;52.35;100979.44;7354638;19;19919;-57
2023/06/13 03:33:40;;;;;;;;;;;;;;;21.33;52.37;100988.34;7352995;19;19923;-57
2023/06/13 03:36:05;;;;;;;;;;;;;;;21.33;52.26;100988.34;7351487;19;19930;-58
2023/06/13 03:38:30;;;;;;;;;;;;;;;21.32;52.61;100983.97;7349933;19;19922;-58
2023/06/13 03:40:56;;;;;;;;;;;;;;;21.31;52.65;100984.94;7352179;19;20420;-57
2023/06/13 03:43:21;;;;;;;;;;;;;;;21.31;52.35;100987.59;7347179;19;19911;-57
2023/06/13 03:45:48;;;;;;;;;;;;;;;21.31;52.31;100995.56;7351125;19;19926;-57
2023/06/13 03:48:13;;;;;;;;;;;;;;;21.29;52.31;100997.44;7356285;19;19919;-57
2023/06/13 03:50:38;;;;;;;;;;;;;;;21.28;52.29;100995.72;7357669;19;20469;-58
2023/06/13 03:53:04;;;;;;;;;;;;;;;21.28;52.70;101010.78;7359048;19;19934;-57
2023/06/13 03:55:32;;;;;;;;;;;;;;;21.26;52.34;101016.22;7357927;19;19919;-57
2023/06/13 03:57:57;;;;;;;;;;;;;;;21.25;52.62;101017.16;7357758;19;19930;-57
2023/06/13 04:00:23;;;;;;;;;;;;;;;21.24;52.62;101020.78;7356161;19;19907;-57
2023/06/13 04:02:48;;;;;;;;;;;;;;;21.22;52.74;101023.50;7355407;19;20453;-57
2023/06/13 04:05:13;;;;;;;;;;;;;;;21.21;52.23;101026.28;7357935;19;19925;-57
2023/06/13 04:07:38;;;;;;;;;;;;;;;21.19;52.21;101023.72;7360264;19;21705;-58
2023/06/13 04:10:04;;;;;;;;;;;;;;;21.18;52.71;101031.75;7354719;19;19990;-57
2023/06/13 04:12:30;;;;;;;;;;;;;;;21.17;52.83;101030.06;7356279;19;19944;-57
2023/06/13 04:14:55;;;;;;;;;;;;;;;21.14;52.50;101020.50;7355152;19;19923;-57
2023/06/13 04:17:21;;;;;;;;;;;;;;;21.13;52.40;101031.19;7359938;19;19927;-57
2023/06/13 04:19:48;;;;;;;;;;;;;;;21.12;52.61;101029.50;7352138;19;19959;-57
2023/06/13 04:22:16;;;;;;;;;;;;;;;21.11;52.33;101033.09;7351424;19;19923;-57
2023/06/13 04:24:42;;;;;;;;;;;;;;;21.09;52.47;101029.69;7358060;19;20678;-57
2023/06/13 04:27:08;;;;;;;;;;;;;;;21.07;52.42;101023.59;7348809;19;19971;-57
2023/06/13 04:29:34;;;;;;;;;;;;;;;21.04;52.87;101021.16;7359139;19;20320;-57
2023/06/13 04:32:02;;;;;;;;;;;;;;;21.03;52.91;101019.44;7355811;19;19942;-56
2023/06/13 04:34:29;;;;;;;;;;;;;;;21.02;52.85;101025.69;7359906;19;19919;-57
2023/06/13 04:36:55;;;;;;;;;;;;;;;21.01;52.70;101029.31;7356209;19;19919;-57
2023/06/13 04:39:21;;;;;;;;;;;;;;;20.99;52.19;101016.13;7358372;19;19997;-57
2023/06/13 04:41:48;;;;;;;;;;;;;;;20.99;52.67;101032.91;7357371;19;19978;-57
2023/06/13 04:44:14;;;;;;;;;;;;;;;20.97;52.95;101029.47;7351800;19;19938;-56
2023/06/13 04:46:43;;;;;;;;;;;;;;;20.94;53.07;101027.03;7352876;19;19943;-57
2023/06/13 04:49:09;;;;;;;;;;;;;;;20.92;52.70;101030.72;7356091;19;20713;-57
2023/06/13 04:51:34;;;;;;;;;;;;;;;20.92;52.78;101036.88;7358581;19;19975;-57
2023/06/13 04:54:02;;;;;;;;;;;;;;;20.90;52.87;101028.16;7351420;19;19975;-58
2023/06/13 04:56:28;;;;;;;;;;;;;;;20.90;52.90;101038.78;7356890;19;20413;-57
2023/06/13 04:58:55;;;;;;;;;;;;;;;20.90;53.03;101028.16;7353553;19;19974;-57
2023/06/13 05:01:21;;;;;;;;;;;;;;;20.89;53.02;101026.44;7357964;19;19922;-57
2023/06/13 05:03:47;;;;;;;;;;;;;;;20.90;53.10;101020.19;7355725;19;20000;-57
2023/06/13 05:06:12;;;;;;;;;;;;;;;20.72;53.33;100981.47;7355778;19;19946;-57
2023/06/13 05:08:37;;;;;;;;;;;;;;;20.91;53.41;101002.47;7352040;19;19918;-58
2023/06/13 05:11:03;;;;;;;;;;;;;;;20.91;53.46;101000.66;7357533;19;20708;-57
2023/06/13 05:13:28;;;;;;;;;;;;;;;20.93;53.49;101003.19;7353252;19;19999;-58
2023/06/13 05:15:55;;;;;;;;;;;;;;;20.93;53.58;100997.91;7355732;19;20482;-57
2023/06/13 05:18:29;;;;;;;;;;;;;;;20.93;53.25;101006.75;7348377;19;19936;-57
2023/06/13 05:20:54;;;;;;;;;;;;;;;20.93;53.19;101006.75;7352928;19;19923;-57
2023/06/13 05:23:21;;;;;;;;;;;;;;;20.93;53.28;101004.09;7355722;19;19933;-57
2023/06/13 05:25:47;;;;;;;;;;;;;;;20.93;53.36;101008.50;7357138;19;19915;-58
2023/06/13 05:28:12;;;;;;;;;;;;;;;20.93;53.24;101022.66;7356780;19;20423;-57
2023/06/13 05:30:38;;;;;;;;;;;;;;;20.91;53.48;101019.25;7352424;19;19915;-57
2023/06/13 05:33:03;;;;;;;;;;;;;;;20.92;53.34;101026.25;7355805;19;20209;-57
2023/06/13 05:35:28;;;;;;;;;;;;;;;20.91;53.54;101024.53;7356021;19;19935;-57
2023/06/13 05:37:54;;;;;;;;;;;;;;;20.90;53.14;101022.84;7354726;19;20867;-57
2023/06/13 05:40:19;;;;;;;;;;;;;;;20.91;53.57;101024.53;7356973;19;19936;-57
2023/06/13 05:42:44;;;;;;;;;;;;;;;20.90;53.05;101028.16;7350265;19;19918;-57
2023/06/13 05:45:10;;;;;;;;;;;;;;;20.91;53.51;101029.84;7355187;19;19918;-57
2023/06/13 05:47:36;;;;;;;;;;;;;;;20.90;53.49;101028.16;7353512;19;19928;-57
2023/06/13 05:50:01;;;;;;;;;;;;;;;20.90;53.08;101028.16;7358743;19;19951;-56
2023/06/13 05:52:26;;;;;;;;;;;;;;;20.91;53.31;101026.34;7351955;19;19927;-57
2023/06/13 05:54:52;;;;;;;;;;;;;;;20.91;53.46;101029.84;7351152;19;19929;-58
2023/06/13 05:57:17;;;;;;;;;;;;;;;20.90;53.38;101025.50;7352125;19;20002;-57
2023/06/13 05:59:42;;;;;;;;;;;;;;;20.93;53.33;101027.09;7352141;19;20006;-57
2023/06/13 06:02:11;;;;;;;;;;;;;;;20.94;53.24;101023.53;7357112;19;19922;-57
2023/06/13 06:04:36;;;;;;;;;;;;;;;20.94;53.39;101024.38;7354774;19;20555;-57
2023/06/13 06:07:02;;;;;;;;;;;;;;;20.95;53.33;101020.75;7351536;19;19929;-58
2023/06/13 06:09:28;;;;;;;;;;;;;;;20.97;53.32;101013.53;7347813;19;19934;-58
2023/06/13 06:11:53;;;;;;;;;;;;;;;20.97;53.35;101024.16;7352248;19;19926;-58
2023/06/13 06:14:18;;;;;;;;;;;;;;;20.99;53.22;101016.13;7351547;19;20744;-57
2023/06/13 06:16:43;;;;;;;;;;;;;;;21.02;53.40;101025.69;7354597;19;19925;-57
2023/06/13 06:19:09;;;;;;;;;;;;;;;21.05;53.25;101033.47;7354720;19;19927;-57
2023/06/13 06:21:34;;;;;;;;;;;;;;;21.07;53.56;101023.59;7354202;19;19926;-57
2023/06/13 06:23:59;;;;;;;;;;;;;;;21.10;53.90;101024.28;7350012;19;20016;-57
2023/06/13 06:26:26;;;;;;;;;;;;;;;21.14;53.87;101015.19;7352045;19;19922;-57
2023/06/13 06:28:51;;;;;;;;;;;;;;;21.19;53.77;101021.06;7353322;19;20708;-57
2023/06/13 06:31:17;;;;;;;;;;;;;;;21.24;53.58;101024.28;7349731;19;19923;-57
2023/06/13 06:33:42;;;;;;;;;;;;;;;21.30;54.01;101028.41;7352193;19;20303;-58
2023/06/13 06:36:08;;;;;;;;;;;;;;;21.36;53.53;101030.66;7354555;19;20628;-58
2023/06/13 06:38:33;;;;;;;;;;;;;;;21.42;53.46;101032.94;7355997;19;19922;-57
2023/06/13 06:40:58;;;;;;;;;;;;;;;21.47;53.45;101024.69;7349584;19;19927;-57
2023/06/13 06:43:24;;;;;;;;;;;;;;;21.53;53.91;101037.56;7352400;19;19915;-57
2023/06/13 06:45:49;;;;;;;;;;;;;;;21.61;53.72;101035.28;7345223;19;19963;-57
2023/06/13 06:48:15;;;;;;;;;;;;;;;21.66;53.92;101037.66;7350944;19;20772;-57
2023/06/13 06:50:40;;;;;;;;;;;;;;;21.71;53.86;101036.41;7351920;19;19935;-57
2023/06/13 06:53:05;;;;;;;;;;;;;;;21.77;53.67;101036.00;7353700;19;20397;-57
2023/06/13 06:55:31;;;;;;;;;;;;;;;21.84;53.55;101036.47;7344133;19;19918;-57
2023/06/13 06:57:56;;;;;;;;;;;;;;;21.89;54.08;101033.50;7349960;19;19919;-57
2023/06/13 07:00:22;;;;;;;;;;;;;;;21.96;53.97;101033.03;7351857;19;19922;-59
2023/06/13 07:02:47;;;;;;;;;;;;;;;22.03;53.78;101042.28;7346367;19;19943;-59
2023/06/13 07:05:15;;;;;;;;;;;;;;;21.77;53.70;100979.34;7347826;19;20675;-59
2023/06/13 07:07:42;;;;;;;;;;;;;;;22.16;53.60;101034.41;7353659;19;19926;-59
2023/06/13 07:10:07;;;;;;;;;;;;;;;22.24;53.83;101041.88;7352336;19;20247;-59
2023/06/13 07:12:33;;;;;;;;;;;;;;;22.31;54.02;101034.38;7349415;19;19926;-59
2023/06/13 07:14:58;;;;;;;;;;;;;;;22.37;53.56;101034.78;7352354;19;20546;-59
2023/06/13 07:17:24;;;;;;;;;;;;;;;22.46;53.56;101038.66;7349661;19;19930;-59
2023/06/13 07:19:49;;;;;;;;;;;;;;;22.52;53.62;101044.41;7353716;19;19986;-59
2023/06/13 07:22:14;;;;;;;;;;;;;;;22.61;53.88;101052.72;7352584;19;19918;-59
2023/06/13 07:24:40;;;;;;;;;;;;;;;22.70;53.97;101050.28;7352880;19;19944;-59
2023/06/13 07:27:06;;;;;;;;;;;;;;;22.79;53.71;101051.47;7350618;19;19915;-59
2023/06/13 07:29:31;;;;;;;;;;;;;;;22.90;53.35;101054.28;7354842;19;19919;-59
2023/06/13 07:31:56;;;;;;;;;;;;;;;22.89;53.30;101038.41;7346930;19;19914;-59
2023/06/13 07:34:22;;;;;;;;;;;;;;;23.10;53.80;101060.91;7346190;19;19923;-59
2023/06/13 07:36:48;;;;;;;;;;;;;;;23.22;53.78;101057.41;7353065;19;20542;-60
2023/06/13 07:39:13;;;;;;;;;;;;;;;23.35;53.33;101060.03;7350818;19;20667;-59
2023/06/13 07:41:39;;;;;;;;;;;;;;;23.45;53.75;101066.44;7350277;19;19923;-59
2023/06/13 07:44:05;;;;;;;;;;;;;;;23.59;53.62;101062.78;7346997;19;19943;-59
2023/06/13 07:46:30;;;;;;;;;;;;;;;23.71;53.71;101069.94;7353386;19;20415;-59
2023/06/13 07:48:56;;;;;;;;;;;;;;;23.83;53.76;101073.53;7348590;19;19911;-58
2023/06/13 07:51:21;;;;;;;;;;;;;;;23.96;53.38;101077.00;7351038;19;19919;-59
2023/06/13 07:53:46;;;;;;;;;;;;;;;24.08;53.25;101080.63;7348754;19;20348;-60
2023/06/13 07:56:12;;;;;;;;;;;;;;;24.21;53.40;101083.22;7346189;19;19930;-59
2023/06/13 07:58:38;;;;;;;;;;;;;;;24.32;53.14;101088.59;7347085;19;20336;-60
2023/06/13 08:01:03;;;;;;;;;;;;;;;24.43;53.21;101086.03;7350366;19;19944;-59
2023/06/13 08:03:28;;;;;;;;;;;;;;;24.53;53.10;101095.06;7343490;19;19943;-60
2023/06/13 08:05:54;;;;;;;;;;;;;;;24.63;52.69;101091.69;7348983;19;22403;-60
2023/06/13 08:08:19;;;;;;;;;;;;;;;24.70;52.75;101104.47;7351554;19;20655;-59
2023/06/13 08:10:44;;;;;;;;;;;;;;;24.79;52.84;101094.91;7326465;19;19922;-60
2023/06/13 08:13:10;;;;;;;;;;;;;;;24.87;53.08;101100.50;7349878;19;19915;-59
2023/06/13 08:15:35;;;;;;;;;;;;;;;24.94;53.25;101101.75;7348713;19;19919;-59
2023/06/13 08:18:00;;;;;;;;;;;;;;;25.03;53.08;101100.19;7344045;19;19971;-60
2023/06/13 08:20:25;;;;;;;;;;;;;;;25.10;52.67;101102.31;7350461;19;20484;-60
2023/06/13 08:22:51;;;;;;;;;;;;;;;25.18;52.44;101109.72;7348697;19;20009;-59
2023/06/13 08:25:16;;;;;;;;;;;;;;;25.23;52.25;101109.34;7348157;19;20347;-59
2023/06/13 08:27:44;;;;;;;;;;;;;;;25.25;52.64;101110.97;7346006;19;19938;-59
2023/06/13 08:30:09;;;;;;;;;;;;;;;25.28;52.51;101109.84;7346397;19;20484;-60
2023/06/13 08:32:35;;;;;;;;;;;;;;;25.31;52.64;101109.63;7350384;19;19998;-59
2023/06/13 08:35:00;;;;;;;;;;;;;;;25.34;52.16;101109.38;7356793;19;19929;-60
2023/06/13 08:37:26;;;;;;;;;;;;;;;25.36;52.21;101112.78;7355434;19;21269;-59
2023/06/13 08:39:52;;;;;;;;;;;;;;;25.37;52.01;101106.47;7356005;19;19970;-60
2023/06/13 08:42:18;;;;;;;;;;;;;;;25.39;52.02;101103.66;7355365;19;20400;-60
2023/06/13 08:44:44;;;;;;;;;;;;;;;25.39;51.92;101101.84;7353357;19;19947;-59
2023/06/13 08:47:10;;;;;;;;;;;;;;;25.41;51.94;101105.25;7355954;19;20256;-59
2023/06/13 08:49:35;;;;;;;;;;;;;;;25.43;52.23;101099.78;7357361;19;19923;-60
2023/06/13 08:52:02;;;;;;;;;;;;;;;25.45;51.82;101100.53;7354487;19;19922;-60
2023/06/13 08:54:31;;;;;;;;;;;;;;;25.47;51.99;101104.75;7355846;19;19926;-60
2023/06/13 08:56:57;;;;;;;;;;;;;;;25.51;52.13;101114.25;7351738;19;20277;-59
2023/06/13 08:59:26;;;;;;;;;;;;;;;25.54;51.72;101105.97;7354865;19;20540;-59
2023/06/13 09:01:52;;;;;;;;;;;;;;;25.58;51.84;101109.25;7350565;19;20744;-59
2023/06/13 09:04:18;;;;;;;;;;;;;;;25.60;51.50;101105.50;7356922;19;19915;-60
2023/06/13 09:06:45;;;;;;;;;;;;;;;25.63;51.66;101105.25;7317358;19;20294;-59
2023/06/13 09:09:11;;;;;;;;;;;;;;;25.67;51.16;101111.22;7348510;19;20037;-55
2023/06/13 09:11:36;;;;;;;;;;;;;;;25.70;51.37;101107.44;7352483;19;20462;-60
2023/06/13 09:14:06;;;;;;;;;;;;;;;25.70;51.47;101105.63;7349464;19;19951;-60
2023/06/13 09:16:32;;;;;;;;;;;;;;;25.72;51.11;101108.16;7349618;19;19970;-59
2023/06/13 09:18:57;;;;;;;;;;;;;;;25.73;51.47;101100.00;7350446;19;19940;-60
2023/06/13 09:21:23;;;;;;;;;;;;;;;25.77;50.74;101101.50;7351363;19;19915;-59
2023/06/13 09:23:48;;;;;;;;;;;;;;;25.80;51.15;101097.72;7346796;19;19982;-60
2023/06/13 09:26:14;;;;;;;;;;;;;;;25.82;51.26;101099.31;7351237;19;19952;-59
2023/06/13 09:28:40;;;;;;;;;;;;;;;25.86;51.21;101094.56;7345984;19;19959;-60
2023/06/13 09:31:06;;;;;;;;;;;;;;;25.91;50.86;101096.88;7354156;19;19923;-59
2023/06/13 09:33:31;;;;;;;;;;;;;;;25.96;50.95;101103.56;7355767;19;20193;-59
2023/06/13 09:35:57;;;;;;;;;;;;;;;25.99;51.22;101100.63;7352886;19;19922;-60
2023/06/13 09:38:23;;;;;;;;;;;;;;;26.04;50.97;101111.78;7352592;19;19931;-60
2023/06/13 09:40:49;;;;;;;;;;;;;;;26.09;51.15;101104.25;7354263;19;19927;-60
2023/06/13 09:43:15;;;;;;;;;;;;;;;26.18;51.06;101109.84;7354989;19;20393;-60
2023/06/13 09:45:42;;;;;;;;;;;;;;;26.23;51.07;101103.13;7351291;19;19943;-59
2023/06/13 09:48:07;;;;;;;;;;;;;;;26.33;50.78;101103.22;7350676;19;19930;-59
2023/06/13 09:50:33;;;;;;;;;;;;;;;26.41;50.36;101100.75;7350848;19;19939;-59
2023/06/13 09:52:58;;;;;;;;;;;;;;;26.21;50.39;101053.38;7352364;19;19927;-58
2023/06/13 09:55:24;;;;;;;;;;;;;;;26.54;50.31;101096.09;7348428;19;20006;-60
2023/06/13 09:57:52;;;;;;;;;;;;;;;26.62;50.48;101093.63;7353347;19;19983;-59
2023/06/13 10:00:17;;;;;;;;;;;;;;;26.72;50.69;101092.88;7350895;19;19951;-59
2023/06/13 10:02:43;;;;;;;;;;;;;;;26.81;50.31;101092.06;7353077;19;19911;-59
2023/06/13 10:05:08;;;;;;;;;;;;;;;26.92;50.22;101097.38;7351492;19;20243;-59
2023/06/13 10:07:34;;;;;;;;;;;;;;;27.02;50.49;101095.63;7347565;19;20333;-60
2023/06/13 10:10:00;;;;;;;;;;;;;;;27.14;50.37;101089.22;7347534;19;19926;-60
2023/06/13 10:12:25;;;;;;;;;;;;;;;27.27;50.07;101082.78;7349508;19;19933;-59
2023/06/13 10:14:58;;;;;;;;;;;;;;;27.38;50.29;101080.03;7352098;19;20348;-59
2023/06/13 10:17:27;;;;;;;;;;;;;;;27.52;50.29;101087.69;7336854;19;19927;-59
2023/06/13 10:19:57;;;;;;;;;;;;;;;27.64;49.95;101083.94;7353963;19;20281;-60
2023/06/13 10:22:23;;;;;;;;;;;;;;;27.77;49.66;101080.19;7338569;19;19935;-60
2023/06/13 10:24:50;;;;;;;;;;;;;;;27.90;49.60;101081.66;7327183;19;19957;-60
2023/06/13 10:27:17;;;;;;;;;;;;;;;28.04;49.68;101082.25;7337929;19;19922;-59
2023/06/13 10:29:42;;;;;;;;;;;;;;;28.19;49.43;101086.22;7339955;19;20542;-59
2023/06/13 10:32:19;;;;;;;;;;;;;;;28.30;49.49;101085.25;7343970;19;19926;-60
2023/06/13 10:34:45;;;;;;;;;;;;;;;28.40;49.22;101088.81;7343188;19;19914;-59
2023/06/13 10:37:19;;;;;;;;;;;;;;;28.52;49.31;101090.38;7341741;19;19929;-59
2023/06/13 10:39:45;;;;;;;;;;;;;;;28.64;49.00;101091.06;7341599;19;19927;-60
2023/06/13 10:42:19;;;;;;;;;;;;;;;28.80;48.88;101087.81;7344548;19;20257;-60
2023/06/13 10:44:58;;;;;;;;;;;;;;;28.99;49.07;101093.16;7337607;19;19983;-60
2023/06/13 10:47:23;;;;;;;;;;;;;;;29.21;48.70;101090.16;7342034;19;20469;-59
2023/06/13 10:49:49;;;;;;;;;;;;;;;29.40;48.42;101093.75;7339641;19;19961;-60
2023/06/13 10:52:17;;;;;;;;;;;;;;;29.59;48.78;101093.72;7340678;19;19919;-59
2023/06/13 10:54:48;;;;;;;;;;;;;;;29.78;48.39;101086.56;7341367;19;20609;-59
2023/06/13 10:57:13;;;;;;;;;;;;;;;29.94;48.08;101087.56;7340055;19;19919;-59
2023/06/13 10:59:40;;;;;;;;;;;;;;;30.11;47.78;101085.06;7335086;19;19919;-60
2023/06/13 11:02:08;;;;;;;;;;;;;;;30.28;47.81;101080.72;7339693;19;19918;-60
2023/06/13 11:04:34;;;;;;;;;;;;;;;30.46;47.88;101092.34;7339152;19;20749;-60
2023/06/13 11:07:18;;;;;;;;;;;;;;;30.64;47.95;101079.69;7342153;19;20017;-60
2023/06/13 11:09:43;;;;;;;;;;;;;;;30.90;47.66;101079.75;7339698;19;19926;-60
2023/06/13 11:12:12;;;;;;;;;;;;;;;31.17;47.79;101086.84;7340956;19;19935;-60
2023/06/13 11:14:38;;;;;;;;;;;;;;;31.49;47.53;101088.91;7337704;19;21009;-60
2023/06/13 11:17:03;;;;;;;;;;;;;;;31.84;47.78;101084.38;7341518;19;19927;-59
2023/06/13 11:19:32;;;;;;;;;;;;;;;32.22;47.29;101088.31;7335791;19;19927;-60
2023/06/13 11:22:03;;;;;;;;;;;;;;;32.66;47.40;101090.75;7337361;19;20657;-60
2023/06/13 11:24:29;;;;;;;;;;;;;;;33.15;47.08;101092.56;7336278;19;19927;-59
2023/06/13 11:26:59;;;;;;;;;;;;;;;33.65;47.86;101080.59;7342179;19;19957;-59
2023/06/13 11:29:25;;;;;;;;;;;;;;;34.16;46.48;101081.84;7336345;19;20269;-61
2023/06/13 11:31:52;;;;;;;;;;;;;;;34.70;45.99;101098.09;7341803;19;19941;-58
2023/06/13 11:34:18;;;;;;;;;;;;;;;35.21;46.68;101095.56;7338104;19;19923;-60
2023/06/13 11:36:43;;;;;;;;;;;;;;;35.71;46.43;101085.00;7343681;19;19918;-60
2023/06/13 11:39:10;;;;;;;;;;;;;;;36.15;45.14;101093.06;7341805;19;19937;-60
2023/06/13 11:41:36;;;;;;;;;;;;;;;36.55;43.44;101088.06;7337593;19;19939;-58
2023/06/13 11:44:01;;;;;;;;;;;;;;;36.96;43.46;101090.09;7341228;19;19933;-60
2023/06/13 11:46:27;;;;;;;;;;;;;;;37.30;43.06;101081.91;7338981;19;19930;-60
2023/06/13 11:48:58;;;;;;;;;;;;;;;37.80;43.10;101088.03;7329002;19;20706;-60
2023/06/13 11:51:26;;;;;;;;;;;;;;;38.27;42.76;101083.53;7338649;19;19967;-60
2023/06/13 11:53:56;;;;;;;;;;;;;;;38.73;42.04;101093.72;7340259;19;19927;-60
2023/06/13 11:56:23;;;;;;;;;;;;;;;39.18;42.26;101102.06;7339601;19;19930;-60
2023/06/13 11:58:49;;;;;;;;;;;;;;;39.56;41.30;101093.16;7340762;19;19921;-60
2023/06/13 12:01:16;;;;;;;;;;;;;;;39.89;39.62;101088.38;7338969;19;19915;-60
2023/06/13 12:03:45;;;;;;;;;;;;;;;40.19;39.04;101079.59;7340260;19;19939;-60
2023/06/13 12:06:10;;;;;;;;;;;;;;;40.44;38.70;101085.94;7339147;19;19933;-60
2023/06/13 12:08:36;;;;;;;;;;;;;;;40.65;37.89;101092.13;7344127;19;19923;-60
2023/06/13 12:11:07;;;;;;;;;;;;;;;40.83;37.43;101077.66;7345746;19;20403;-59
2023/06/13 12:13:33;;;;;;;;;;;;;;;41.04;38.34;101077.25;7346604;19;19915;-60
2023/06/13 12:15:58;;;;;;;;;;;;;;;41.19;36.93;101076.88;7348500;19;20225;-60
2023/06/13 12:18:24;;;;;;;;;;;;;;;41.36;37.52;101082.59;7342010;19;19922;-60
2023/06/13 12:20:53;;;;;;;;;;;;;;;41.47;36.58;101087.34;7347318;19;19915;-59
2023/06/13 12:23:19;;;;;;;;;;;;;;;41.58;35.82;101091.22;7343259;19;20265;-60
2023/06/13 12:25:45;;;;;;;;;;;;;;;41.64;35.57;101090.28;7349011;19;20554;-60
2023/06/13 12:28:15;;;;;;;;;;;;;;;41.68;36.16;101084.13;7345113;19;19919;-60
2023/06/13 12:30:41;;;;;;;;;;;;;;;41.69;35.89;101082.19;7347357;19;19918;-60
2023/06/13 12:33:07;;;;;;;;;;;;;;;41.59;34.27;101081.91;7347425;19;19915;-60